createdAt,value
2019-02-25T00:00:22.879Z,96.90
2019-02-25T00:02:51.347Z,96.90
2019-02-25T00:05:19.731Z,97.00
2019-02-25T00:07:48.120Z,97.20
2019-02-25T00:10:16.491Z,97.30
2019-02-25T00:12:44.902Z,97.20
2019-02-25T00:15:13.307Z,97.20
2019-02-25T00:17:41.689Z,97.30
2019-02-25T00:20:11.539Z,97.30
2019-02-25T00:22:39.908Z,97.30
2019-02-25T00:25:10.258Z,97.40
2019-02-25T00:27:38.645Z,97.50
2019-02-25T00:30:12.386Z,97.60
2019-02-25T00:32:40.795Z,97.60
2019-02-25T00:35:09.172Z,97.70
2019-02-25T00:37:37.578Z,97.70
2019-02-25T00:40:07.997Z,97.70
2019-02-25T00:42:36.459Z,97.80
2019-02-25T00:45:07.882Z,98.00
2019-02-25T00:47:36.400Z,98.10
2019-02-25T00:50:08.092Z,98.10
2019-02-25T00:52:36.474Z,98.10
2019-02-25T00:55:06.938Z,98.00
2019-02-25T00:57:35.308Z,98.10
2019-02-25T01:00:06.422Z,98.20
2019-02-25T01:02:34.784Z,98.30
2019-02-25T01:05:03.176Z,98.30
2019-02-25T01:07:31.569Z,98.40
2019-02-25T01:09:59.956Z,98.40
2019-02-25T01:12:28.356Z,98.50
2019-02-25T01:14:56.760Z,98.60
2019-02-25T01:17:25.138Z,98.40
2019-02-25T01:19:53.540Z,98.20
2019-02-25T01:22:21.926Z,98.40
2019-02-25T01:24:50.327Z,98.50
2019-02-25T01:27:18.758Z,98.60
2019-02-25T01:29:47.166Z,98.80
2019-02-25T01:32:15.573Z,98.70
2019-02-25T01:34:43.958Z,98.70
2019-02-25T01:37:12.365Z,98.60
2019-02-25T01:39:40.743Z,99.00
2019-02-25T01:42:09.146Z,99.10
2019-02-25T01:44:37.608Z,99.10
2019-02-25T01:47:06.012Z,99.10
2019-02-25T01:49:34.410Z,99.20
2019-02-25T01:52:02.784Z,99.30
2019-02-25T01:54:31.188Z,99.30
2019-02-25T01:56:59.565Z,99.30
2019-02-25T01:59:27.968Z,99.30
2019-02-25T02:01:56.351Z,99.00
2019-02-25T02:04:24.761Z,98.80
2019-02-25T02:06:53.176Z,98.70
2019-02-25T02:09:21.547Z,98.70
2019-02-25T02:11:49.951Z,98.60
2019-02-25T02:14:18.353Z,98.40
2019-02-25T02:16:46.741Z,98.40
2019-02-25T02:19:15.156Z,98.20
2019-02-25T02:21:43.534Z,98.10
2019-02-25T02:24:11.945Z,98.10
2019-02-25T02:26:40.348Z,98.20
2019-02-25T02:29:08.755Z,98.30
2019-02-25T02:31:37.144Z,98.30
2019-02-25T02:34:05.564Z,98.20
2019-02-25T02:36:33.968Z,98.20
2019-02-25T02:39:02.415Z,98.30
2019-02-25T02:41:34.081Z,98.30
2019-02-25T02:44:02.474Z,98.20
2019-02-25T02:46:50.645Z,98.30
2019-02-25T02:49:19.058Z,98.30
2019-02-25T02:51:47.434Z,98.40
2019-02-25T02:54:15.847Z,98.40
2019-02-25T02:56:44.227Z,98.30
2019-02-25T02:59:12.716Z,98.40
2019-02-25T03:01:41.092Z,98.30
2019-02-25T03:04:09.508Z,98.40
2019-02-25T03:06:37.906Z,98.40
2019-02-25T03:09:07.944Z,98.50
2019-02-25T03:11:36.490Z,98.60
2019-02-25T03:14:04.872Z,98.50
2019-02-25T03:16:33.278Z,98.60
2019-02-25T03:19:01.656Z,98.60
2019-02-25T03:21:30.062Z,98.50
2019-02-25T03:23:58.445Z,98.50
2019-02-25T03:26:26.864Z,98.60
2019-02-25T03:28:55.251Z,98.60
2019-02-25T03:31:23.644Z,98.50
2019-02-25T03:33:52.065Z,98.30
2019-02-25T03:36:20.459Z,98.10
2019-02-25T03:38:48.871Z,98.00
2019-02-25T03:41:17.277Z,97.70
2019-02-25T03:43:45.646Z,97.40
2019-02-25T03:46:14.055Z,97.20
2019-02-25T03:48:42.455Z,96.70
2019-02-25T03:51:10.829Z,96.00
2019-02-25T03:53:39.293Z,95.70
2019-02-25T03:56:07.674Z,95.60
2019-02-25T03:58:36.153Z,95.20
2019-02-25T04:01:04.529Z,95.00
2019-02-25T04:03:32.941Z,94.70
2019-02-25T04:06:01.327Z,94.40
2019-02-25T04:08:29.697Z,94.20
2019-02-25T04:10:58.101Z,93.90
2019-02-25T04:13:26.492Z,93.90
2019-02-25T04:15:54.900Z,93.80
2019-02-25T04:18:23.331Z,93.80
2019-02-25T04:20:51.659Z,93.90
2019-02-25T04:23:20.064Z,94.10
2019-02-25T04:25:48.445Z,94.20
2019-02-25T04:28:16.848Z,94.30
2019-02-25T04:30:45.338Z,94.30
2019-02-25T04:33:13.912Z,94.20
2019-02-25T04:35:42.304Z,94.20
2019-02-25T04:38:10.703Z,94.30
2019-02-25T04:40:39.117Z,94.30
2019-02-25T04:43:07.488Z,94.40
2019-02-25T04:45:35.941Z,94.50
2019-02-25T04:48:04.326Z,94.60
2019-02-25T04:50:32.721Z,94.70
2019-02-25T04:53:01.128Z,94.60
2019-02-25T04:55:29.518Z,94.60
2019-02-25T04:57:57.978Z,94.60
2019-02-25T05:00:26.779Z,94.60
2019-02-25T05:02:55.154Z,94.30
2019-02-25T05:05:23.566Z,94.10
2019-02-25T05:07:51.947Z,93.70
2019-02-25T05:10:20.350Z,94.00
2019-02-25T05:12:50.367Z,93.80
2019-02-25T05:15:20.414Z,93.80
2019-02-25T05:17:48.787Z,93.80
2019-02-25T05:20:17.199Z,93.80
2019-02-25T05:22:45.578Z,93.90
2019-02-25T05:25:13.966Z,93.90
2019-02-25T05:27:42.359Z,93.90
2019-02-25T05:30:14.844Z,94.00
2019-02-25T05:32:43.236Z,94.00
2019-02-25T05:35:12.755Z,94.10
2019-02-25T05:37:41.170Z,94.20
2019-02-25T05:40:15.366Z,94.30
2019-02-25T05:42:43.832Z,94.40
2019-02-25T05:45:13.167Z,94.50
2019-02-25T05:47:41.547Z,94.70
2019-02-25T05:50:15.818Z,94.90
2019-02-25T05:52:44.209Z,95.00
2019-02-25T05:55:13.971Z,94.90
2019-02-25T05:57:42.326Z,94.90
2019-02-25T06:00:15.478Z,94.80
2019-02-25T06:02:43.904Z,94.60
2019-02-25T06:05:12.280Z,94.50
2019-02-25T06:07:40.700Z,93.90
2019-02-25T06:10:10.420Z,93.60
2019-02-25T06:12:38.830Z,93.30
2019-02-25T06:15:15.312Z,93.10
2019-02-25T06:17:43.732Z,93.10
2019-02-25T06:20:14.444Z,93.10
2019-02-25T06:22:42.821Z,93.30
2019-02-25T06:25:13.424Z,93.10
2019-02-25T06:27:41.811Z,93.30
2019-02-25T06:30:15.808Z,94.10
2019-02-25T06:32:44.204Z,93.70
2019-02-25T06:35:12.671Z,93.80
2019-02-25T06:37:41.089Z,93.80
2019-02-25T06:40:12.395Z,93.90
2019-02-25T06:42:40.780Z,94.00
2019-02-25T06:45:11.840Z,94.00
2019-02-25T06:47:40.200Z,94.00
2019-02-25T06:50:10.257Z,93.90
2019-02-25T06:52:38.614Z,93.90
2019-02-25T06:55:15.131Z,93.80
2019-02-25T06:57:43.499Z,93.80
2019-02-25T07:00:16.445Z,93.70
2019-02-25T07:02:44.848Z,93.70
2019-02-25T07:05:17.610Z,93.70
2019-02-25T07:07:50.217Z,93.60
2019-02-25T07:10:36.431Z,93.60
2019-02-25T07:13:18.491Z,93.50
2019-02-25T07:15:57.549Z,93.50
2019-02-25T07:18:45.626Z,93.50
2019-02-25T07:21:15.676Z,93.40
2019-02-25T07:23:51.439Z,93.30
2019-02-25T07:26:30.470Z,93.30
2019-02-25T07:29:16.999Z,93.20
2019-02-25T07:31:59.127Z,93.30
2019-02-25T07:34:38.065Z,93.40
2019-02-25T07:37:17.023Z,93.40
2019-02-25T07:39:56.107Z,93.30
2019-02-25T07:42:42.407Z,93.20
2019-02-25T07:45:24.195Z,93.20
2019-02-25T07:48:03.282Z,93.10
2019-02-25T07:50:46.938Z,93.00
2019-02-25T07:53:11.024Z,92.60
2019-02-25T07:55:41.033Z,92.30
2019-02-25T07:58:23.252Z,92.00
2019-02-25T08:00:53.303Z,92.00
2019-02-25T08:03:35.623Z,91.60
2019-02-25T08:06:17.714Z,91.50
2019-02-25T08:08:56.500Z,91.30
2019-02-25T08:11:43.008Z,91.10
2019-02-25T08:14:13.042Z,90.70
2019-02-25T08:16:54.907Z,90.40
2019-02-25T08:19:30.639Z,90.00
2019-02-25T08:22:17.452Z,89.60
2019-02-25T08:25:03.959Z,89.20
2019-02-25T08:27:42.848Z,88.70
2019-02-25T08:30:13.726Z,88.60
2019-02-25T08:32:46.616Z,88.50
2019-02-25T08:35:25.699Z,88.40
2019-02-25T08:38:11.159Z,87.80
2019-02-25T08:41:00.948Z,88.00
2019-02-25T08:43:46.168Z,88.30
2019-02-25T08:46:24.716Z,88.30
2019-02-25T08:48:54.702Z,87.70
2019-02-25T08:51:23.084Z,86.80
2019-02-25T08:53:51.496Z,86.00
2019-02-25T08:56:19.886Z,84.90
2019-02-25T08:58:48.264Z,83.70
2019-02-25T09:01:16.678Z,81.30
2019-02-25T09:03:45.060Z,80.50
2019-02-25T09:06:13.471Z,80.20
2019-02-25T09:08:41.855Z,79.90
2019-02-25T09:11:14.174Z,80.30
2019-02-25T09:13:40.303Z,81.20
2019-02-25T09:16:08.708Z,81.30
2019-02-25T09:18:37.124Z,80.90
2019-02-25T09:21:05.534Z,80.60
2019-02-25T09:23:33.954Z,80.20
2019-02-25T09:26:02.349Z,78.70
2019-02-25T09:28:30.762Z,77.60
2019-02-25T09:30:59.160Z,77.40
2019-02-25T09:33:27.592Z,77.50
2019-02-25T09:35:56.002Z,77.00
2019-02-25T09:38:24.376Z,77.20
2019-02-25T09:40:52.780Z,76.60
2019-02-25T09:43:21.182Z,76.70
2019-02-25T09:45:49.588Z,77.20
2019-02-25T09:48:17.984Z,77.40
2019-02-25T09:50:46.393Z,77.00
2019-02-25T09:53:14.795Z,76.00
2019-02-25T09:55:43.204Z,75.10
2019-02-25T09:58:11.656Z,75.30
2019-02-25T10:00:40.059Z,74.30
2019-02-25T10:03:08.446Z,74.40
2019-02-25T10:05:36.851Z,74.60
2019-02-25T10:08:05.264Z,74.40
2019-02-25T10:10:33.699Z,72.80
2019-02-25T10:13:02.107Z,71.40
2019-02-25T10:15:30.506Z,69.60
2019-02-25T10:17:58.913Z,68.40
2019-02-25T10:20:27.300Z,68.00
2019-02-25T10:22:55.718Z,67.80
2019-02-25T10:25:24.196Z,67.60
2019-02-25T10:27:52.617Z,67.60
2019-02-25T10:30:21.005Z,65.50
2019-02-25T10:32:49.406Z,64.30
2019-02-25T10:35:24.710Z,64.30
2019-02-25T10:37:52.633Z,64.40
2019-02-25T10:40:24.443Z,64.80
2019-02-25T10:42:51.074Z,65.10
2019-02-25T10:45:20.569Z,65.20
2019-02-25T10:47:49.460Z,63.50
2019-02-25T10:50:18.974Z,60.10
2019-02-25T10:52:49.401Z,58.60
2019-02-25T10:55:23.586Z,57.50
2019-02-25T10:57:52.841Z,55.90
2019-02-25T11:00:22.347Z,55.00
2019-02-25T11:02:51.176Z,54.20
2019-02-25T11:05:21.625Z,53.70
2019-02-25T11:07:50.886Z,53.20
2019-02-25T11:10:22.365Z,52.80
2019-02-25T11:12:50.903Z,53.30
2019-02-25T11:15:19.321Z,54.00
2019-02-25T11:17:49.607Z,54.40
2019-02-25T11:20:17.757Z,54.70
2019-02-25T11:22:48.317Z,53.60
2019-02-25T11:25:16.186Z,52.90
2019-02-25T11:27:44.573Z,52.60
2019-02-25T11:30:16.604Z,52.40
2019-02-25T11:32:45.599Z,51.80
2019-02-25T11:35:15.607Z,51.90
2019-02-25T11:37:44.001Z,51.40
2019-02-25T11:40:15.663Z,51.60
2019-02-25T11:42:44.038Z,51.00
2019-02-25T11:45:17.696Z,50.90
2019-02-25T11:47:46.080Z,51.30
2019-02-25T11:50:21.027Z,52.20
2019-02-25T11:52:49.419Z,52.20
2019-02-25T11:55:17.784Z,52.50
2019-02-25T11:57:46.154Z,52.90
2019-02-25T12:00:20.829Z,52.80
2019-02-25T12:02:49.206Z,53.00
2019-02-25T12:05:18.618Z,53.10
2019-02-25T12:07:47.088Z,53.60
2019-02-25T12:10:16.274Z,53.80
2019-02-25T12:12:44.683Z,53.80
2019-02-25T12:15:16.327Z,53.80
2019-02-25T12:17:44.707Z,54.10
2019-02-25T12:20:14.162Z,54.20
2019-02-25T12:22:42.564Z,54.40
2019-02-25T12:25:19.657Z,54.90
2019-02-25T12:27:48.064Z,54.80
2019-02-25T12:30:22.332Z,55.10
2019-02-25T12:32:50.744Z,55.70
2019-02-25T12:35:19.144Z,56.20
2019-02-25T12:37:47.570Z,55.90
2019-02-25T12:40:16.716Z,56.20
2019-02-25T12:42:45.094Z,56.70
2019-02-25T12:45:14.553Z,57.30
2019-02-25T12:47:43.008Z,57.30
2019-02-25T12:50:16.019Z,57.90
2019-02-25T12:52:44.423Z,57.20
2019-02-25T12:55:16.798Z,57.50
2019-02-25T12:57:45.170Z,57.50
2019-02-25T13:00:19.688Z,57.00
2019-02-25T13:02:48.096Z,56.70
2019-02-25T13:05:26.118Z,57.00
2019-02-25T13:07:54.524Z,57.20
2019-02-25T13:10:22.902Z,57.20
2019-02-25T13:12:51.761Z,57.40
2019-02-25T13:16:27.086Z,57.60
2019-02-25T13:18:55.512Z,57.50
2019-02-25T13:21:23.907Z,57.20
2019-02-25T13:23:52.284Z,57.20
2019-02-25T13:26:20.678Z,57.20
2019-02-25T13:28:49.058Z,56.90
2019-02-25T13:31:17.671Z,56.70
2019-02-25T13:33:46.070Z,57.40
2019-02-25T13:36:14.452Z,56.80
2019-02-25T13:38:42.832Z,57.00
2019-02-25T13:41:11.245Z,57.10
2019-02-25T13:43:39.619Z,57.30
2019-02-25T13:46:08.019Z,56.90
2019-02-25T13:48:36.398Z,57.00
2019-02-25T13:51:04.799Z,56.90
2019-02-25T13:53:33.190Z,58.00
2019-02-25T13:56:01.567Z,57.20
2019-02-25T13:58:29.971Z,56.90
2019-02-25T14:00:58.353Z,56.70
2019-02-25T14:03:26.753Z,56.90
2019-02-25T14:05:55.162Z,57.10
2019-02-25T14:08:23.538Z,56.90
2019-02-25T14:10:51.930Z,56.50
2019-02-25T14:13:20.331Z,56.40
2019-02-25T14:15:48.723Z,56.20
2019-02-25T14:18:17.131Z,56.40
2019-02-25T14:20:45.528Z,56.50
2019-02-25T14:23:16.019Z,56.60
2019-02-25T14:25:43.951Z,56.80
2019-02-25T14:28:12.332Z,57.10
2019-02-25T14:30:40.709Z,57.00
2019-02-25T14:33:09.094Z,57.50
2019-02-25T14:35:37.535Z,57.90
2019-02-25T14:38:15.334Z,58.30
2019-02-25T14:40:43.797Z,58.50
2019-02-25T14:43:13.180Z,58.60
2019-02-25T14:45:44.135Z,58.50
2019-02-25T14:48:15.435Z,58.50
2019-02-25T14:50:42.126Z,58.80
2019-02-25T14:53:11.420Z,58.60
2019-02-25T14:55:42.568Z,58.50
2019-02-25T14:58:12.449Z,58.70
2019-02-25T15:00:40.610Z,59.20
2019-02-25T15:03:08.995Z,59.60
2019-02-25T15:05:37.542Z,60.40
2019-02-25T15:08:05.931Z,60.80
2019-02-25T15:10:36.108Z,61.20
2019-02-25T15:13:06.085Z,61.70
2019-02-25T15:15:34.908Z,61.80
2019-02-25T15:18:03.752Z,61.70
2019-02-25T15:20:32.454Z,61.90
2019-02-25T15:23:00.859Z,61.80
2019-02-25T15:25:31.356Z,61.90
2019-02-25T15:27:59.283Z,61.60
2019-02-25T15:30:31.501Z,60.80
2019-02-25T15:33:00.107Z,60.70
2019-02-25T15:35:31.681Z,60.70
2019-02-25T15:38:00.369Z,60.70
2019-02-25T15:40:29.140Z,60.60
2019-02-25T15:43:03.463Z,59.70
2019-02-25T15:45:35.386Z,60.90
2019-02-25T15:48:04.371Z,60.80
2019-02-25T15:50:33.120Z,60.60
2019-02-25T15:53:03.310Z,60.20
2019-02-25T15:55:31.551Z,60.50
2019-02-25T15:57:59.947Z,60.70
2019-02-25T16:00:30.000Z,61.00
2019-02-25T16:02:58.671Z,61.20
2019-02-25T16:05:29.555Z,61.20
2019-02-25T16:07:59.953Z,61.50
2019-02-25T16:10:28.514Z,62.10
2019-02-25T16:12:57.872Z,63.10
2019-02-25T16:15:27.002Z,63.70
2019-02-25T16:17:55.398Z,64.20
2019-02-25T16:20:25.213Z,64.40
2019-02-25T16:22:56.287Z,64.60
2019-02-25T16:25:25.228Z,65.10
2019-02-25T16:27:54.902Z,65.90
2019-02-25T16:30:23.984Z,66.00
2019-02-25T16:32:53.327Z,66.40
2019-02-25T16:35:21.702Z,66.70
2019-02-25T16:37:50.814Z,67.40
2019-02-25T16:40:24.407Z,67.80
2019-02-25T16:42:50.731Z,68.00
2019-02-25T16:45:21.227Z,68.50
2019-02-25T16:47:49.612Z,69.30
2019-02-25T16:50:18.703Z,69.90
2019-02-25T16:52:49.585Z,70.60
2019-02-25T16:55:23.382Z,71.40
2019-02-25T16:57:52.502Z,72.10
2019-02-25T17:00:25.255Z,73.00
2019-02-25T17:02:53.366Z,73.70
2019-02-25T17:05:22.412Z,74.00
2019-02-25T17:07:50.892Z,74.40
2019-02-25T17:10:24.116Z,75.00
2019-02-25T17:12:52.545Z,75.90
2019-02-25T17:15:21.874Z,76.90
2019-02-25T17:17:52.415Z,78.20
2019-02-25T17:20:21.379Z,79.60
2019-02-25T17:22:49.847Z,80.60
2019-02-25T17:25:18.526Z,81.40
2019-02-25T17:27:46.912Z,82.40
2019-02-25T17:30:21.949Z,83.20
2019-02-25T17:32:50.552Z,84.00
2019-02-25T17:35:21.435Z,84.90
2019-02-25T17:37:50.783Z,85.90
2019-02-25T17:40:19.508Z,86.00
2019-02-25T17:42:49.485Z,85.40
2019-02-25T17:45:27.730Z,85.10
2019-02-25T17:47:58.305Z,84.40
2019-02-25T17:50:26.442Z,83.60
2019-02-25T17:52:54.820Z,83.10
2019-02-25T17:55:29.461Z,83.00
2019-02-25T17:58:00.830Z,82.80
2019-02-25T18:00:31.977Z,83.00
2019-02-25T18:03:03.198Z,83.40
2019-02-25T18:05:33.476Z,83.70
2019-02-25T18:08:02.991Z,84.00
2019-02-25T18:10:31.570Z,84.20
2019-02-25T18:13:01.256Z,84.80
2019-02-25T18:15:33.598Z,85.10
2019-02-25T18:18:01.980Z,85.70
2019-02-25T18:20:30.656Z,86.30
2019-02-25T18:22:59.368Z,86.20
2019-02-25T18:25:27.783Z,85.80
2019-02-25T18:27:56.200Z,85.60
2019-02-25T18:30:31.368Z,85.30
2019-02-25T18:33:01.131Z,85.00
2019-02-25T18:35:30.272Z,84.90
2019-02-25T18:38:00.382Z,84.80
2019-02-25T18:40:28.862Z,85.00
2019-02-25T18:42:58.200Z,84.90
2019-02-25T18:45:27.303Z,84.70
2019-02-25T18:47:55.691Z,85.00
2019-02-25T18:50:26.829Z,85.00
2019-02-25T18:52:56.706Z,85.50
2019-02-25T18:55:29.243Z,85.70
2019-02-25T18:57:57.254Z,85.70
2019-02-25T19:00:29.994Z,85.80
2019-02-25T19:03:00.200Z,85.20
2019-02-25T19:05:29.315Z,84.60
2019-02-25T19:07:58.541Z,84.60
2019-02-25T19:10:27.093Z,84.60
2019-02-25T19:12:56.456Z,84.70
2019-02-25T19:15:25.534Z,84.70
2019-02-25T19:17:54.453Z,84.80
2019-02-25T19:20:22.921Z,85.00
2019-02-25T19:22:51.343Z,85.00
2019-02-25T19:25:20.870Z,84.90
2019-02-25T19:27:50.624Z,85.00
2019-02-25T19:30:22.152Z,85.40
2019-02-25T19:32:49.888Z,86.40
2019-02-25T19:35:18.334Z,86.50
2019-02-25T19:37:46.888Z,86.40
2019-02-25T19:40:22.532Z,86.50
2019-02-25T19:42:51.564Z,86.70
2019-02-25T19:45:20.206Z,86.90
2019-02-25T19:47:48.685Z,87.50
2019-02-25T19:50:18.540Z,87.80
2019-02-25T19:52:46.997Z,88.40
2019-02-25T19:55:17.748Z,88.80
2019-02-25T19:57:45.739Z,89.10
2019-02-25T20:00:22.337Z,89.40
2019-02-25T20:02:51.127Z,89.50
2019-02-25T20:05:21.748Z,90.00
2019-02-25T20:07:50.044Z,90.10
2019-02-25T20:10:18.602Z,90.30
2019-02-25T20:12:50.085Z,90.30
2019-02-25T20:15:25.027Z,90.30
2019-02-25T20:17:53.310Z,90.20
2019-02-25T20:20:21.811Z,90.10
2019-02-25T20:22:50.195Z,89.20
2019-02-25T20:25:19.404Z,90.10
2019-02-25T20:27:48.942Z,90.10
2019-02-25T20:30:21.354Z,90.00
2019-02-25T20:32:49.388Z,90.00
2019-02-25T20:35:19.893Z,90.10
2019-02-25T20:37:52.952Z,90.00
2019-02-25T20:40:21.822Z,90.00
2019-02-25T20:42:51.225Z,90.10
2019-02-25T20:45:33.247Z,90.00
2019-02-25T20:48:01.927Z,90.20
2019-02-25T20:50:30.484Z,90.30
2019-02-25T20:53:03.005Z,90.30
2019-02-25T20:55:29.861Z,90.40
2019-02-25T20:57:59.134Z,90.40
2019-02-25T21:00:27.583Z,90.60
2019-02-25T21:02:56.011Z,90.70
2019-02-25T21:05:26.804Z,90.70
2019-02-25T21:07:55.483Z,90.80
2019-02-25T21:10:25.557Z,90.80
2019-02-25T21:12:55.189Z,90.90
2019-02-25T21:15:24.639Z,91.00
2019-02-25T21:17:54.971Z,91.00
2019-02-25T21:20:23.677Z,91.20
2019-02-25T21:22:57.346Z,91.30
2019-02-25T21:25:26.404Z,91.30
2019-02-25T21:27:55.131Z,91.40
2019-02-25T21:30:23.253Z,91.50
2019-02-25T21:32:52.565Z,91.60
2019-02-25T21:35:23.494Z,92.20
2019-02-25T21:37:52.831Z,92.20
2019-02-25T21:40:25.068Z,92.20
2019-02-25T21:42:53.930Z,92.40
2019-02-25T21:45:25.279Z,92.50
2019-02-25T21:47:56.036Z,92.60
2019-02-25T21:50:26.345Z,92.60
2019-02-25T21:52:53.190Z,92.80
2019-02-25T21:55:23.757Z,92.90
2019-02-25T21:57:54.353Z,92.90
2019-02-25T22:00:23.085Z,93.00
2019-02-25T22:02:52.712Z,93.00
2019-02-25T22:05:23.495Z,93.00
2019-02-25T22:07:54.443Z,93.10
2019-02-25T22:10:21.306Z,93.20
2019-02-25T22:12:49.710Z,93.20
2019-02-25T22:15:22.348Z,93.30
2019-02-25T22:17:53.158Z,93.50
2019-02-25T22:20:22.635Z,93.60
2019-02-25T22:22:54.489Z,93.70
2019-02-25T22:25:23.982Z,93.80
2019-02-25T22:27:52.351Z,93.90
2019-02-25T22:30:20.754Z,94.00
2019-02-25T22:32:49.141Z,94.10
2019-02-25T22:35:17.539Z,94.20
2019-02-25T22:37:49.345Z,94.30
2019-02-25T22:40:17.348Z,94.40
2019-02-25T22:42:47.985Z,94.50
2019-02-25T22:45:18.983Z,94.60
2019-02-25T22:47:47.426Z,94.80
2019-02-25T22:50:15.887Z,94.80
2019-02-25T22:52:44.295Z,94.80
2019-02-25T22:55:15.296Z,95.10
2019-02-25T22:57:45.677Z,95.20
2019-02-25T23:00:28.323Z,95.30
2019-02-25T23:02:56.818Z,95.30
2019-02-25T23:05:25.557Z,95.40
2019-02-25T23:07:54.717Z,95.40
2019-02-25T23:10:24.147Z,95.30
2019-02-25T23:12:52.885Z,95.30
2019-02-25T23:15:23.299Z,95.40
2019-02-25T23:17:51.605Z,95.40
2019-02-25T23:20:20.010Z,95.40
2019-02-25T23:22:48.379Z,95.50
2019-02-25T23:25:16.787Z,95.70
2019-02-25T23:27:45.203Z,95.70
2019-02-25T23:30:14.638Z,95.70
2019-02-25T23:32:43.029Z,95.70
2019-02-25T23:35:13.624Z,95.70
2019-02-25T23:37:45.123Z,95.80
2019-02-25T23:40:14.503Z,96.00
2019-02-25T23:42:44.298Z,96.00
2019-02-25T23:45:15.492Z,96.10
2019-02-25T23:47:44.079Z,96.30
2019-02-25T23:50:14.038Z,96.40
2019-02-25T23:52:42.452Z,96.60
2019-02-25T23:55:14.356Z,96.60
2019-02-25T23:57:41.827Z,96.60
